sensor_id;sensor_type;location;lat;lon;timestamp;pressure;altitude;pressure_sealevel;temperature;humidity
7930;BME280;4010;42.698;23.124;2023-04-22T00:00:20;118349.16;;;-140.64;100.00
7930;BME280;4010;42.698;23.124;2023-04-22T00:02:47;118349.16;;;-140.64;100.00
7930;BME280;4010;42.698;23.124;2023-04-22T00:05:15;118349.16;;;-140.64;100.00
7930;BME280;4010;42.698;23.124;2023-04-22T00:07:42;118349.16;;;-140.64;100.00
7930;BME280;4010;42.698;23.124;2023-04-22T00:10:10;118349.16;;;-140.64;100.00
7930;BME280;4010;42.698;23.124;2023-04-22T00:12:36;118349.16;;;-140.64;100.00
7930;BME280;4010;42.698;23.124;2023-04-22T00:15:04;118349.16;;;-140.64;100.00
7930;BME280;4010;42.698;23.124;2023-04-22T00:17:31;118349.16;;;-140.64;100.00
7930;BME280;4010;42.698;23.124;2023-04-22T00:19:58;118349.16;;;-140.64;100.00
7930;BME280;4010;42.698;23.124;2023-04-22T00:22:27;118349.16;;;-140.64;100.00
7930;BME280;4010;42.698;23.124;2023-04-22T00:24:53;118349.16;;;-140.64;100.00
7930;BME280;4010;42.698;23.124;2023-04-22T00:27:20;118349.16;;;-140.64;100.00
7930;BME280;4010;42.698;23.124;2023-04-22T00:29:47;118349.16;;;-140.64;100.00
7930;BME280;4010;42.698;23.124;2023-04-22T00:32:13;118349.16;;;-140.64;100.00
7930;BME280;4010;42.698;23.124;2023-04-22T00:34:40;118349.16;;;-140.64;100.00
7930;BME280;4010;42.698;23.124;2023-04-22T00:37:07;118349.16;;;-140.64;100.00
7930;BME280;4010;42.698;23.124;2023-04-22T00:39:35;118349.16;;;-140.64;100.00
7930;BME280;4010;42.698;23.124;2023-04-22T00:42:04;118349.16;;;-140.64;100.00
7930;BME280;4010;42.698;23.124;2023-04-22T00:44:31;118349.16;;;-140.64;100.00
7930;BME280;4010;42.698;23.124;2023-04-22T00:46:58;118349.16;;;-140.64;100.00
7930;BME280;4010;42.698;23.124;2023-04-22T00:49:26;118349.16;;;-140.64;100.00
7930;BME280;4010;42.698;23.124;2023-04-22T00:51:52;118349.16;;;-140.64;100.00
7930;BME280;4010;42.698;23.124;2023-04-22T00:54:19;118349.16;;;-140.64;100.00
7930;BME280;4010;42.698;23.124;2023-04-22T00:56:47;118349.16;;;-140.64;100.00
7930;BME280;4010;42.698;23.124;2023-04-22T00:59:14;118349.16;;;-140.64;100.00
7930;BME280;4010;42.698;23.124;2023-04-22T01:01:42;118349.16;;;-140.64;100.00
7930;BME280;4010;42.698;23.124;2023-04-22T01:04:08;118349.16;;;-140.64;100.00
7930;BME280;4010;42.698;23.124;2023-04-22T01:06:37;118349.16;;;-140.64;100.00
7930;BME280;4010;42.698;23.124;2023-04-22T01:09:06;118349.16;;;-140.64;100.00
7930;BME280;4010;42.698;23.124;2023-04-22T01:11:33;118349.16;;;-140.64;100.00
7930;BME280;4010;42.698;23.124;2023-04-22T01:14:02;118349.16;;;-140.64;100.00
7930;BME280;4010;42.698;23.124;2023-04-22T01:16:29;118349.16;;;-140.64;100.00
7930;BME280;4010;42.698;23.124;2023-04-22T01:18:58;118349.16;;;-140.64;100.00
7930;BME280;4010;42.698;23.124;2023-04-22T01:21:25;118349.16;;;-140.64;100.00
7930;BME280;4010;42.698;23.124;2023-04-22T01:23:53;118349.16;;;-140.64;100.00
7930;BME280;4010;42.698;23.124;2023-04-22T01:26:20;118349.16;;;-140.64;100.00
7930;BME280;4010;42.698;23.124;2023-04-22T01:28:47;118349.16;;;-140.64;100.00
7930;BME280;4010;42.698;23.124;2023-04-22T01:31:14;118349.16;;;-140.64;100.00
7930;BME280;4010;42.698;23.124;2023-04-22T01:33:41;118349.16;;;-140.64;100.00
7930;BME280;4010;42.698;23.124;2023-04-22T01:36:09;118349.16;;;-140.64;100.00
7930;BME280;4010;42.698;23.124;2023-04-22T01:38:36;118349.16;;;-140.64;100.00
7930;BME280;4010;42.698;23.124;2023-04-22T01:41:04;118349.16;;;-140.64;100.00
7930;BME280;4010;42.698;23.124;2023-04-22T01:43:31;118349.16;;;-140.64;100.00
7930;BME280;4010;42.698;23.124;2023-04-22T01:45:59;118349.16;;;-140.64;100.00
7930;BME280;4010;42.698;23.124;2023-04-22T01:48:26;118349.16;;;-140.64;100.00
7930;BME280;4010;42.698;23.124;2023-04-22T01:50:52;118349.16;;;-140.64;100.00
7930;BME280;4010;42.698;23.124;2023-04-22T01:53:19;118349.16;;;-140.64;100.00
7930;BME280;4010;42.698;23.124;2023-04-22T01:55:46;118349.16;;;-140.64;100.00
7930;BME280;4010;42.698;23.124;2023-04-22T01:58:14;118349.16;;;-140.64;100.00
7930;BME280;4010;42.698;23.124;2023-04-22T02:00:41;118349.16;;;-140.64;100.00
7930;BME280;4010;42.698;23.124;2023-04-22T02:03:09;118349.16;;;-140.64;100.00
7930;BME280;4010;42.698;23.124;2023-04-22T02:05:35;118349.16;;;-140.64;100.00
7930;BME280;4010;42.698;23.124;2023-04-22T02:08:02;118349.16;;;-140.64;100.00
7930;BME280;4010;42.698;23.124;2023-04-22T02:10:29;118349.16;;;-140.64;100.00
7930;BME280;4010;42.698;23.124;2023-04-22T02:12:56;118349.16;;;-140.64;100.00
7930;BME280;4010;42.698;23.124;2023-04-22T02:15:24;118349.16;;;-140.64;100.00
7930;BME280;4010;42.698;23.124;2023-04-22T02:17:51;118349.16;;;-140.64;100.00
7930;BME280;4010;42.698;23.124;2023-04-22T02:20:17;118349.16;;;-140.64;100.00
7930;BME280;4010;42.698;23.124;2023-04-22T02:22:44;118349.16;;;-140.64;100.00
7930;BME280;4010;42.698;23.124;2023-04-22T02:25:11;118349.16;;;-140.64;100.00
7930;BME280;4010;42.698;23.124;2023-04-22T02:27:38;118349.16;;;-140.64;100.00
7930;BME280;4010;42.698;23.124;2023-04-22T02:30:06;118349.16;;;-140.64;100.00
7930;BME280;4010;42.698;23.124;2023-04-22T02:32:34;118349.16;;;-140.64;100.00
7930;BME280;4010;42.698;23.124;2023-04-22T02:35:01;118349.16;;;-140.64;100.00
7930;BME280;4010;42.698;23.124;2023-04-22T02:37:29;118349.16;;;-140.64;100.00
7930;BME280;4010;42.698;23.124;2023-04-22T02:39:56;118349.16;;;-140.64;100.00
7930;BME280;4010;42.698;23.124;2023-04-22T02:42:22;118349.16;;;-140.64;100.00
7930;BME280;4010;42.698;23.124;2023-04-22T02:44:49;118349.16;;;-140.64;100.00
7930;BME280;4010;42.698;23.124;2023-04-22T02:47:16;118349.16;;;-140.64;100.00
7930;BME280;4010;42.698;23.124;2023-04-22T02:49:44;118349.16;;;-140.64;100.00
7930;BME280;4010;42.698;23.124;2023-04-22T02:52:10;118349.16;;;-140.64;100.00
7930;BME280;4010;42.698;23.124;2023-04-22T02:54:37;118349.16;;;-140.64;100.00
7930;BME280;4010;42.698;23.124;2023-04-22T02:57:04;118349.16;;;-140.64;100.00
7930;BME280;4010;42.698;23.124;2023-04-22T02:59:31;118349.16;;;-140.64;100.00
7930;BME280;4010;42.698;23.124;2023-04-22T03:01:57;118349.16;;;-140.64;100.00
7930;BME280;4010;42.698;23.124;2023-04-22T03:04:24;118349.16;;;-140.64;100.00
7930;BME280;4010;42.698;23.124;2023-04-22T03:06:52;118349.16;;;-140.64;100.00
7930;BME280;4010;42.698;23.124;2023-04-22T03:09:19;118349.16;;;-140.64;100.00
7930;BME280;4010;42.698;23.124;2023-04-22T03:11:45;118349.16;;;-140.64;100.00
7930;BME280;4010;42.698;23.124;2023-04-22T03:14:12;118349.16;;;-140.64;100.00
7930;BME280;4010;42.698;23.124;2023-04-22T03:16:39;118349.16;;;-140.64;100.00
7930;BME280;4010;42.698;23.124;2023-04-22T03:19:05;118349.16;;;-140.64;100.00
7930;BME280;4010;42.698;23.124;2023-04-22T03:21:32;118349.16;;;-140.64;100.00
7930;BME280;4010;42.698;23.124;2023-04-22T03:24:00;118349.16;;;-140.64;100.00
7930;BME280;4010;42.698;23.124;2023-04-22T03:26:27;118349.16;;;-140.64;100.00
7930;BME280;4010;42.698;23.124;2023-04-22T03:28:53;118349.16;;;-140.64;100.00
7930;BME280;4010;42.698;23.124;2023-04-22T03:31:20;118349.16;;;-140.64;100.00
7930;BME280;4010;42.698;23.124;2023-04-22T03:33:46;118349.16;;;-140.64;100.00
7930;BME280;4010;42.698;23.124;2023-04-22T03:36:13;117962.25;;;-140.64;100.00
7930;BME280;4010;42.698;23.124;2023-04-22T03:38:40;115944.16;;;-140.64;100.00
7930;BME280;4010;42.698;23.124;2023-04-22T03:41:08;113394.91;;;-140.64;100.00
7930;BME280;4010;42.698;23.124;2023-04-22T03:43:34;109931.75;;;-140.64;100.00
7930;BME280;4010;42.698;23.124;2023-04-22T03:46:01;108355.34;;;-140.64;100.00
7930;BME280;4010;42.698;23.124;2023-04-22T03:48:28;110194.53;;;-140.64;100.00
7930;BME280;4010;42.698;23.124;2023-04-22T03:50:59;111245.94;;;-140.64;100.00
7930;BME280;4010;42.698;23.124;2023-04-22T03:53:25;110983.06;;;-140.64;100.00
7930;BME280;4010;42.698;23.124;2023-04-22T03:55:52;107567.41;;;-140.64;100.00
7930;BME280;4010;42.698;23.124;2023-04-22T03:58:20;105204.66;;;-140.64;100.00
7930;BME280;4010;42.698;23.124;2023-04-22T04:00:47;100484.00;;;-140.64;100.00
7930;BME280;4010;42.698;23.124;2023-04-22T04:03:13;101008.19;;;-140.64;100.00
7930;BME280;4010;42.698;23.124;2023-04-22T04:05:40;95508.00;;;-140.64;100.00
7930;BME280;4010;42.698;23.124;2023-04-22T04:08:07;87926.78;;;-140.64;100.00
7930;BME280;4010;42.698;23.124;2023-04-22T04:10:35;78538.72;;;-140.64;100.00
7930;BME280;4010;42.698;23.124;2023-04-22T04:13:02;66061.09;;;-140.64;100.00
7930;BME280;4010;42.698;23.124;2023-04-22T04:15:30;63726.63;;;-140.64;100.00
7930;BME280;4010;42.698;23.124;2023-04-22T04:17:57;64504.59;;;-140.64;100.00
7930;BME280;4010;42.698;23.124;2023-04-22T04:20:25;59062.44;;;-140.64;100.00
7930;BME280;4010;42.698;23.124;2023-04-22T04:22:52;84794.59;;;-140.64;100.00
7930;BME280;4010;42.698;23.124;2023-04-22T04:25:19;118349.16;;;-140.64;100.00
7930;BME280;4010;42.698;23.124;2023-04-22T04:27:46;118349.16;;;-140.64;100.00
7930;BME280;4010;42.698;23.124;2023-04-22T04:30:14;118349.16;;;-140.64;95.92
7930;BME280;4010;42.698;23.124;2023-04-22T04:32:43;118349.16;;;-140.64;87.24
7930;BME280;4010;42.698;23.124;2023-04-22T04:35:10;118349.16;;;-140.64;82.57
7930;BME280;4010;42.698;23.124;2023-04-22T04:37:37;118349.16;;;-140.64;75.39
7930;BME280;4010;42.698;23.124;2023-04-22T04:40:05;118349.16;;;-140.64;72.75
7930;BME280;4010;42.698;23.124;2023-04-22T04:42:34;118349.16;;;-140.64;69.88
7930;BME280;4010;42.698;23.124;2023-04-22T04:45:01;118349.16;;;-140.64;72.29
7930;BME280;4010;42.698;23.124;2023-04-22T04:47:28;118349.16;;;-140.64;73.93
7930;BME280;4010;42.698;23.124;2023-04-22T04:49:59;118349.16;;;-140.64;77.53
7930;BME280;4010;42.698;23.124;2023-04-22T04:52:26;118349.16;;;-140.64;80.74
7930;BME280;4010;42.698;23.124;2023-04-22T04:54:52;118349.16;;;-140.64;78.09
7930;BME280;4010;42.698;23.124;2023-04-22T04:57:19;118349.16;;;-140.64;68.76
7930;BME280;4010;42.698;23.124;2023-04-22T04:59:46;118349.16;;;-140.64;63.64
7930;BME280;4010;42.698;23.124;2023-04-22T05:02:12;118349.16;;;-140.64;59.20
7930;BME280;4010;42.698;23.124;2023-04-22T05:04:39;118349.16;;;-140.64;60.64
7930;BME280;4010;42.698;23.124;2023-04-22T05:07:07;118349.16;;;-140.64;62.79
7930;BME280;4010;42.698;23.124;2023-04-22T05:09:34;118349.16;;;-140.64;59.14
7930;BME280;4010;42.698;23.124;2023-04-22T05:12:01;118349.16;;;-140.64;57.05
7930;BME280;4010;42.698;23.124;2023-04-22T05:14:29;118349.16;;;-140.64;55.27
7930;BME280;4010;42.698;23.124;2023-04-22T05:16:55;118349.16;;;-140.64;53.75
7930;BME280;4010;42.698;23.124;2023-04-22T05:19:22;118349.16;;;-140.64;52.63
7930;BME280;4010;42.698;23.124;2023-04-22T05:21:49;118349.16;;;-140.64;53.68
7930;BME280;4010;42.698;23.124;2023-04-22T05:24:17;118349.16;;;-140.64;52.39
7930;BME280;4010;42.698;23.124;2023-04-22T05:26:44;118349.16;;;-140.64;51.08
7930;BME280;4010;42.698;23.124;2023-04-22T05:29:10;118349.16;;;-140.64;50.09
7930;BME280;4010;42.698;23.124;2023-04-22T05:31:37;118349.16;;;-140.64;47.73
7930;BME280;4010;42.698;23.124;2023-04-22T05:34:04;118349.16;;;-140.64;49.61
7930;BME280;4010;42.698;23.124;2023-04-22T05:36:30;118349.16;;;-140.64;50.36
7930;BME280;4010;42.698;23.124;2023-04-22T05:38:57;118349.16;;;-140.64;50.75
7930;BME280;4010;42.698;23.124;2023-04-22T05:41:25;118349.16;;;-140.64;50.97
7930;BME280;4010;42.698;23.124;2023-04-22T05:43:52;118349.16;;;-140.64;50.08
7930;BME280;4010;42.698;23.124;2023-04-22T05:46:18;118349.16;;;-140.64;52.46
7930;BME280;4010;42.698;23.124;2023-04-22T05:48:45;118349.16;;;-140.64;53.24
7930;BME280;4010;42.698;23.124;2023-04-22T05:51:13;118349.16;;;-140.64;52.41
7930;BME280;4010;42.698;23.124;2023-04-22T05:53:39;118349.16;;;-140.64;52.01
7930;BME280;4010;42.698;23.124;2023-04-22T05:56:06;118349.16;;;-140.64;50.67
7930;BME280;4010;42.698;23.124;2023-04-22T05:58:34;118349.16;;;-140.64;50.20
7930;BME280;4010;42.698;23.124;2023-04-22T06:01:02;118349.16;;;-140.64;51.77
7930;BME280;4010;42.698;23.124;2023-04-22T06:03:28;118349.16;;;-140.64;54.16
7930;BME280;4010;42.698;23.124;2023-04-22T06:05:56;118349.16;;;-140.64;52.80
7930;BME280;4010;42.698;23.124;2023-04-22T06:08:22;118349.16;;;-140.64;51.65
7930;BME280;4010;42.698;23.124;2023-04-22T06:10:49;118349.16;;;-140.64;50.59
7930;BME280;4010;42.698;23.124;2023-04-22T06:13:16;118349.16;;;-140.64;50.62
7930;BME280;4010;42.698;23.124;2023-04-22T06:15:44;118349.16;;;-140.64;51.71
7930;BME280;4010;42.698;23.124;2023-04-22T06:18:10;118349.16;;;-140.64;54.02
7930;BME280;4010;42.698;23.124;2023-04-22T06:20:37;118349.16;;;-140.64;52.63
7930;BME280;4010;42.698;23.124;2023-04-22T06:23:04;118349.16;;;-140.64;53.18
7930;BME280;4010;42.698;23.124;2023-04-22T06:25:31;118349.16;;;-140.64;50.85
7930;BME280;4010;42.698;23.124;2023-04-22T06:27:58;118349.16;;;-140.64;52.64
7930;BME280;4010;42.698;23.124;2023-04-22T06:30:25;118349.16;;;-140.64;52.06
7930;BME280;4010;42.698;23.124;2023-04-22T06:32:54;118349.16;;;-140.64;53.55
7930;BME280;4010;42.698;23.124;2023-04-22T06:35:21;118349.16;;;-140.64;52.61
7930;BME280;4010;42.698;23.124;2023-04-22T06:37:48;118349.16;;;-140.64;54.95
7930;BME280;4010;42.698;23.124;2023-04-22T06:40:15;118349.16;;;-140.64;52.61
7930;BME280;4010;42.698;23.124;2023-04-22T06:42:41;118349.16;;;-140.64;53.44
7930;BME280;4010;42.698;23.124;2023-04-22T06:45:08;118349.16;;;-140.64;55.62
7930;BME280;4010;42.698;23.124;2023-04-22T06:47:37;118349.16;;;-140.64;57.01
7930;BME280;4010;42.698;23.124;2023-04-22T06:50:07;118349.16;;;-140.64;60.75
7930;BME280;4010;42.698;23.124;2023-04-22T06:52:34;118349.16;;;-140.64;56.21
7930;BME280;4010;42.698;23.124;2023-04-22T06:55:02;118349.16;;;-140.64;58.51
7930;BME280;4010;42.698;23.124;2023-04-22T06:57:29;118349.16;;;-140.64;59.87
7930;BME280;4010;42.698;23.124;2023-04-22T06:59:55;118349.16;;;-140.64;62.76
7930;BME280;4010;42.698;23.124;2023-04-22T07:02:22;118349.16;;;-140.64;63.41
7930;BME280;4010;42.698;23.124;2023-04-22T07:04:49;118349.16;;;-140.64;64.03
7930;BME280;4010;42.698;23.124;2023-04-22T07:07:17;118349.16;;;-140.64;62.77
7930;BME280;4010;42.698;23.124;2023-04-22T07:09:44;118349.16;;;-140.64;63.72
7930;BME280;4010;42.698;23.124;2023-04-22T07:12:10;118349.16;;;-140.64;66.04
7930;BME280;4010;42.698;23.124;2023-04-22T07:14:41;118349.16;;;-140.64;67.23
7930;BME280;4010;42.698;23.124;2023-04-22T07:17:08;118349.16;;;-140.64;65.31
7930;BME280;4010;42.698;23.124;2023-04-22T07:19:35;118349.16;;;-140.64;69.66
7930;BME280;4010;42.698;23.124;2023-04-22T07:22:01;118349.16;;;-140.64;66.85
7930;BME280;4010;42.698;23.124;2023-04-22T07:24:30;118349.16;;;-140.64;66.85
7930;BME280;4010;42.698;23.124;2023-04-22T07:26:56;118349.16;;;-140.64;68.14
7930;BME280;4010;42.698;23.124;2023-04-22T07:29:23;118349.16;;;-140.64;69.33
7930;BME280;4010;42.698;23.124;2023-04-22T07:31:50;118349.16;;;-140.64;67.26
7930;BME280;4010;42.698;23.124;2023-04-22T07:34:16;118349.16;;;-140.64;67.44
7930;BME280;4010;42.698;23.124;2023-04-22T07:36:43;118349.16;;;-140.64;66.20
7930;BME280;4010;42.698;23.124;2023-04-22T07:39:10;118349.16;;;-140.64;67.84
7930;BME280;4010;42.698;23.124;2023-04-22T07:41:38;118349.16;;;-140.64;65.63
7930;BME280;4010;42.698;23.124;2023-04-22T07:44:05;118349.16;;;-140.64;68.55
7930;BME280;4010;42.698;23.124;2023-04-22T07:46:31;118349.16;;;-140.64;66.46
7930;BME280;4010;42.698;23.124;2023-04-22T07:48:58;118349.16;;;-140.64;65.95
7930;BME280;4010;42.698;23.124;2023-04-22T07:51:24;118349.16;;;-140.64;65.92
7930;BME280;4010;42.698;23.124;2023-04-22T07:53:51;118349.16;;;-140.64;64.12
7930;BME280;4010;42.698;23.124;2023-04-22T07:56:18;118349.16;;;-140.64;68.18
7930;BME280;4010;42.698;23.124;2023-04-22T07:58:46;118349.16;;;-140.64;63.81
7930;BME280;4010;42.698;23.124;2023-04-22T08:01:12;118349.16;;;-140.64;61.62
7930;BME280;4010;42.698;23.124;2023-04-22T08:03:39;118349.16;;;-140.64;60.91
7930;BME280;4010;42.698;23.124;2023-04-22T08:06:06;118349.16;;;-140.64;62.36
7930;BME280;4010;42.698;23.124;2023-04-22T08:08:33;118349.16;;;-140.64;61.11
7930;BME280;4010;42.698;23.124;2023-04-22T08:10:59;118349.16;;;-140.64;63.20
7930;BME280;4010;42.698;23.124;2023-04-22T08:13:26;118349.16;;;-140.64;59.46
7930;BME280;4010;42.698;23.124;2023-04-22T08:15:54;118349.16;;;-140.64;61.74
7930;BME280;4010;42.698;23.124;2023-04-22T08:18:21;118349.16;;;-140.64;60.04
7930;BME280;4010;42.698;23.124;2023-04-22T08:20:49;118349.16;;;-140.64;59.95
7930;BME280;4010;42.698;23.124;2023-04-22T08:23:15;118349.16;;;-140.64;60.40
7930;BME280;4010;42.698;23.124;2023-04-22T08:25:42;118349.16;;;-140.64;67.88
7930;BME280;4010;42.698;23.124;2023-04-22T08:28:09;118349.16;;;-140.64;58.24
7930;BME280;4010;42.698;23.124;2023-04-22T08:30:36;118349.16;;;-140.64;56.01
7930;BME280;4010;42.698;23.124;2023-04-22T08:33:04;118349.16;;;-140.64;56.91
7930;BME280;4010;42.698;23.124;2023-04-22T08:35:33;118349.16;;;-140.64;55.33
7930;BME280;4010;42.698;23.124;2023-04-22T08:37:59;118349.16;;;-140.64;55.67
7930;BME280;4010;42.698;23.124;2023-04-22T08:40:27;118349.16;;;-140.64;53.45
7930;BME280;4010;42.698;23.124;2023-04-22T08:42:54;118349.16;;;-140.64;52.65
7930;BME280;4010;42.698;23.124;2023-04-22T08:45:21;118349.16;;;-140.64;53.24
7930;BME280;4010;42.698;23.124;2023-04-22T08:47:48;118349.16;;;-140.64;56.30
7930;BME280;4010;42.698;23.124;2023-04-22T08:50:19;118349.16;;;-140.64;52.76
7930;BME280;4010;42.698;23.124;2023-04-22T08:52:46;118349.16;;;-140.64;51.96
7930;BME280;4010;42.698;23.124;2023-04-22T08:55:13;118349.16;;;-140.64;51.60
7930;BME280;4010;42.698;23.124;2023-04-22T08:57:39;118349.16;;;-140.64;54.53
7930;BME280;4010;42.698;23.124;2023-04-22T09:00:07;118349.16;;;-140.64;51.70
7930;BME280;4010;42.698;23.124;2023-04-22T09:02:36;118349.16;;;-140.64;54.06
7930;BME280;4010;42.698;23.124;2023-04-22T09:05:04;118349.16;;;-140.64;51.65
7930;BME280;4010;42.698;23.124;2023-04-22T09:07:33;118349.16;;;-140.64;54.47
7930;BME280;4010;42.698;23.124;2023-04-22T09:10:00;118349.16;;;-140.64;49.09
7930;BME280;4010;42.698;23.124;2023-04-22T09:12:27;118349.16;;;-140.64;50.21
7930;BME280;4010;42.698;23.124;2023-04-22T09:14:55;118349.16;;;-140.64;50.08
7930;BME280;4010;42.698;23.124;2023-04-22T09:17:29;118349.16;;;-140.64;49.06
7930;BME280;4010;42.698;23.124;2023-04-22T09:19:56;118349.16;;;-140.64;54.22
7930;BME280;4010;42.698;23.124;2023-04-22T09:22:25;118349.16;;;-140.64;49.72
7930;BME280;4010;42.698;23.124;2023-04-22T09:24:53;118349.16;;;-140.64;51.23
7930;BME280;4010;42.698;23.124;2023-04-22T09:27:23;118349.16;;;-140.64;47.55
7930;BME280;4010;42.698;23.124;2023-04-22T09:29:50;118349.16;;;-140.64;45.67
7930;BME280;4010;42.698;23.124;2023-04-22T09:32:18;118349.16;;;-140.64;47.64
7930;BME280;4010;42.698;23.124;2023-04-22T09:34:49;118349.16;;;-140.64;44.48
7930;BME280;4010;42.698;23.124;2023-04-22T09:37:18;118349.16;;;-140.64;46.51
7930;BME280;4010;42.698;23.124;2023-04-22T09:39:47;118349.16;;;-140.64;48.09
7930;BME280;4010;42.698;23.124;2023-04-22T09:42:15;118349.16;;;-140.64;45.34
7930;BME280;4010;42.698;23.124;2023-04-22T09:44:43;118349.16;;;-140.64;45.81
7930;BME280;4010;42.698;23.124;2023-04-22T09:47:10;118349.16;;;-140.64;44.95
7930;BME280;4010;42.698;23.124;2023-04-22T09:49:38;118349.16;;;-140.64;44.96
7930;BME280;4010;42.698;23.124;2023-04-22T09:52:06;118349.16;;;-140.64;45.30
7930;BME280;4010;42.698;23.124;2023-04-22T09:54:32;118349.16;;;-140.64;47.04
7930;BME280;4010;42.698;23.124;2023-04-22T09:56:59;118349.16;;;-140.64;47.22
7930;BME280;4010;42.698;23.124;2023-04-22T09:59:28;118349.16;;;-140.64;46.67
7930;BME280;4010;42.698;23.124;2023-04-22T10:01:57;118349.16;;;-140.64;47.49
7930;BME280;4010;42.698;23.124;2023-04-22T10:04:24;118349.16;;;-140.64;48.76
7930;BME280;4010;42.698;23.124;2023-04-22T10:06:51;118349.16;;;-140.64;47.90
7930;BME280;4010;42.698;23.124;2023-04-22T10:09:21;118349.16;;;-140.64;46.12
7930;BME280;4010;42.698;23.124;2023-04-22T10:11:49;118349.16;;;-140.64;48.35
7930;BME280;4010;42.698;23.124;2023-04-22T10:14:16;118349.16;;;-140.64;45.19
7930;BME280;4010;42.698;23.124;2023-04-22T10:16:46;118349.16;;;-140.64;44.86
7930;BME280;4010;42.698;23.124;2023-04-22T10:19:16;118349.16;;;-140.64;47.71
7930;BME280;4010;42.698;23.124;2023-04-22T10:21:46;118349.16;;;-140.64;48.46
7930;BME280;4010;42.698;23.124;2023-04-22T10:24:14;118349.16;;;-140.64;48.70
7930;BME280;4010;42.698;23.124;2023-04-22T10:26:47;118349.16;;;-140.64;49.75
7930;BME280;4010;42.698;23.124;2023-04-22T10:29:16;118349.16;;;-140.64;49.90
7930;BME280;4010;42.698;23.124;2023-04-22T10:31:51;118349.16;;;-140.64;50.40
7930;BME280;4010;42.698;23.124;2023-04-22T10:34:18;118349.16;;;-140.64;50.69
7930;BME280;4010;42.698;23.124;2023-04-22T10:36:56;118349.16;;;-140.64;49.10
7930;BME280;4010;42.698;23.124;2023-04-22T10:39:24;118349.16;;;-140.64;48.57
7930;BME280;4010;42.698;23.124;2023-04-22T10:41:54;118349.16;;;-140.64;52.35
7930;BME280;4010;42.698;23.124;2023-04-22T10:44:21;118349.16;;;-140.64;51.40
7930;BME280;4010;42.698;23.124;2023-04-22T10:46:59;118349.16;;;-140.64;48.82
7930;BME280;4010;42.698;23.124;2023-04-22T10:49:29;118349.16;;;-140.64;48.51
7930;BME280;4010;42.698;23.124;2023-04-22T10:51:57;118349.16;;;-140.64;49.00
7930;BME280;4010;42.698;23.124;2023-04-22T10:54:58;118349.16;;;-140.64;49.31
7930;BME280;4010;42.698;23.124;2023-04-22T10:57:34;118349.16;;;-140.64;46.83
7930;BME280;4010;42.698;23.124;2023-04-22T11:00:25;118349.16;;;-140.64;45.40
7930;BME280;4010;42.698;23.124;2023-04-22T11:03:06;118349.16;;;-140.64;47.84
7930;BME280;4010;42.698;23.124;2023-04-22T11:05:33;118349.16;;;-140.64;45.73
7930;BME280;4010;42.698;23.124;2023-04-22T11:08:02;118349.16;;;-140.64;47.53
7930;BME280;4010;42.698;23.124;2023-04-22T11:10:37;118349.16;;;-140.64;45.52
7930;BME280;4010;42.698;23.124;2023-04-22T11:13:08;118349.16;;;-140.64;43.92
7930;BME280;4010;42.698;23.124;2023-04-22T11:15:36;118349.16;;;-140.64;43.94
7930;BME280;4010;42.698;23.124;2023-04-22T11:18:07;118349.16;;;-140.64;42.90
7930;BME280;4010;42.698;23.124;2023-04-22T11:20:34;118349.16;;;-140.64;42.69
7930;BME280;4010;42.698;23.124;2023-04-22T11:23:01;118349.16;;;-140.64;43.53
7930;BME280;4010;42.698;23.124;2023-04-22T11:25:28;118349.16;;;-140.64;42.81
7930;BME280;4010;42.698;23.124;2023-04-22T11:27:55;118349.16;;;-140.64;43.17
7930;BME280;4010;42.698;23.124;2023-04-22T11:30:24;118349.16;;;-140.64;43.00
7930;BME280;4010;42.698;23.124;2023-04-22T11:32:52;118349.16;;;-140.64;43.52
7930;BME280;4010;42.698;23.124;2023-04-22T11:35:22;118349.16;;;-140.64;45.40
7930;BME280;4010;42.698;23.124;2023-04-22T11:37:51;118349.16;;;-140.64;46.48
7930;BME280;4010;42.698;23.124;2023-04-22T11:40:21;118349.16;;;-140.64;48.82
7930;BME280;4010;42.698;23.124;2023-04-22T11:42:50;118349.16;;;-140.64;50.71
7930;BME280;4010;42.698;23.124;2023-04-22T11:45:17;118349.16;;;-140.64;51.24
7930;BME280;4010;42.698;23.124;2023-04-22T11:47:43;118349.16;;;-140.64;51.51
7930;BME280;4010;42.698;23.124;2023-04-22T11:50:12;118349.16;;;-140.64;51.94
7930;BME280;4010;42.698;23.124;2023-04-22T11:52:45;118349.16;;;-140.64;53.31
7930;BME280;4010;42.698;23.124;2023-04-22T11:55:12;118349.16;;;-140.64;52.57
7930;BME280;4010;42.698;23.124;2023-04-22T11:57:39;118349.16;;;-140.64;53.70
7930;BME280;4010;42.698;23.124;2023-04-22T12:00:11;118349.16;;;-140.64;54.17
7930;BME280;4010;42.698;23.124;2023-04-22T12:02:39;118349.16;;;-140.64;53.30
7930;BME280;4010;42.698;23.124;2023-04-22T12:05:08;118349.16;;;-140.64;54.09
7930;BME280;4010;42.698;23.124;2023-04-22T12:07:37;118349.16;;;-140.64;55.88
7930;BME280;4010;42.698;23.124;2023-04-22T12:10:06;118349.16;;;-140.64;55.36
7930;BME280;4010;42.698;23.124;2023-04-22T12:12:33;118349.16;;;-140.64;57.50
7930;BME280;4010;42.698;23.124;2023-04-22T12:15:09;118349.16;;;-140.64;56.02
7930;BME280;4010;42.698;23.124;2023-04-22T12:17:36;118349.16;;;-140.64;55.90
7930;BME280;4010;42.698;23.124;2023-04-22T12:20:03;118349.16;;;-140.64;53.38
7930;BME280;4010;42.698;23.124;2023-04-22T12:22:31;118349.16;;;-140.64;53.63
7930;BME280;4010;42.698;23.124;2023-04-22T12:24:59;118349.16;;;-140.64;54.69
7930;BME280;4010;42.698;23.124;2023-04-22T12:27:27;118349.16;;;-140.64;53.65
7930;BME280;4010;42.698;23.124;2023-04-22T12:29:56;118349.16;;;-140.64;53.11
7930;BME280;4010;42.698;23.124;2023-04-22T12:32:25;118349.16;;;-140.64;52.88
7930;BME280;4010;42.698;23.124;2023-04-22T12:34:52;118349.16;;;-140.64;52.86
7930;BME280;4010;42.698;23.124;2023-04-22T12:37:19;118349.16;;;-140.64;53.70